Annada, Missouri
Current Conditions -  °F | °C
As of 3:55 AM on Friday 31 Oct 2014 (Local Time) from KPPQ Reporting Station
Overcast Overcast  
Wind Chill: 42°   Ceiling: 6000
Heat Index: 47°   Visibility: 10mi
Dew Point: 41°   Wind: 13mph
Humidity: 79%   Direction: 330°NNW
Pressure: 30.14"   Gusts: NA
Location:  39.26°N, 90.83°W
Report Text: KPPQ 310855Z AUTO 33011KT 10SM SCT037 OVC060 09/05 A3014 RMK AO2 T00850051
Loading
Personal Weather Stations






























Interactive Weather Map New forecast layout! Learn more

10-Day Weather Forecast

Advertisements
Track Severe Weather on mobile